createdAt,value
2023-05-03T00:00:40.861Z,17.37
2023-05-03T00:03:43.393Z,17.36
2023-05-03T00:06:45.162Z,17.36
2023-05-03T00:09:49.674Z,17.36
2023-05-03T00:12:51.137Z,17.34
2023-05-03T00:15:52.641Z,17.34
2023-05-03T00:18:54.262Z,17.33
2023-05-03T00:21:55.716Z,17.34
2023-05-03T00:24:57.264Z,17.32
2023-05-03T00:27:58.708Z,17.31
2023-05-03T00:31:10.342Z,17.33
2023-05-03T00:34:11.911Z,17.31
2023-05-03T00:37:13.386Z,17.31
2023-05-03T00:40:18.495Z,17.29
2023-05-03T00:43:19.980Z,17.28
2023-05-03T00:46:21.701Z,17.27
2023-05-03T00:49:26.666Z,17.29
2023-05-03T00:52:29.355Z,17.28
2023-05-03T00:55:32.002Z,17.26
2023-05-03T00:58:36.142Z,17.26
2023-05-03T01:01:37.703Z,17.27
2023-05-03T01:04:42.350Z,17.25
2023-05-03T01:07:53.690Z,17.26
2023-05-03T01:11:02.884Z,17.23
2023-05-03T01:14:16.501Z,17.25
2023-05-03T01:17:25.404Z,17.23
2023-05-03T01:20:30.769Z,17.23
2023-05-03T01:23:51.733Z,17.23
2023-05-03T01:26:53.198Z,17.20
2023-05-03T01:29:54.647Z,17.19
2023-05-03T01:33:10.983Z,17.18
2023-05-03T01:36:22.635Z,17.18
2023-05-03T01:39:49.896Z,17.19
2023-05-03T01:42:53.430Z,17.17
2023-05-03T01:45:55.072Z,17.17
2023-05-03T01:48:56.550Z,17.15
2023-05-03T01:51:58.014Z,17.14
2023-05-03T01:55:00.119Z,17.14
2023-05-03T01:58:01.606Z,17.15
2023-05-03T02:01:05.574Z,17.14
2023-05-03T02:04:07.245Z,17.13
2023-05-03T02:07:09.290Z,17.12
2023-05-03T02:10:14.912Z,17.12
2023-05-03T02:13:16.723Z,17.10
2023-05-03T02:16:18.815Z,17.11
2023-05-03T02:19:20.486Z,17.10
2023-05-03T02:22:22.003Z,17.10
2023-05-03T02:25:23.853Z,17.10
2023-05-03T02:28:26.280Z,17.09
2023-05-03T02:31:28.024Z,17.10
2023-05-03T02:34:32.781Z,17.08
2023-05-03T02:37:34.388Z,17.08
2023-05-03T02:40:40.678Z,17.07
2023-05-03T02:43:42.170Z,17.05
2023-05-03T02:46:44.389Z,17.06
2023-05-03T02:49:45.999Z,17.05
2023-05-03T02:52:48.099Z,17.04
2023-05-03T02:55:50.102Z,17.05
2023-05-03T02:58:51.941Z,17.04
2023-05-03T03:01:54.714Z,17.05
2023-05-03T03:04:56.199Z,17.05
2023-05-03T03:07:58.592Z,17.06
2023-05-03T03:11:01.690Z,17.09
2023-05-03T03:14:03.208Z,17.09
2023-05-03T03:17:08.910Z,17.14
2023-05-03T03:20:13.427Z,17.16
2023-05-03T03:23:18.687Z,17.20
2023-05-03T03:26:20.245Z,17.22
2023-05-03T03:29:21.861Z,17.26
2023-05-03T03:32:24.232Z,17.28
2023-05-03T03:35:26.844Z,17.31
2023-05-03T03:38:28.499Z,17.34
2023-05-03T03:41:36.206Z,17.37
2023-05-03T03:44:38.314Z,17.37
2023-05-03T03:47:41.148Z,17.39
2023-05-03T03:50:42.934Z,17.42
2023-05-03T03:53:46.452Z,17.42
2023-05-03T03:56:48.238Z,17.42
2023-05-03T03:59:50.367Z,17.44
2023-05-03T04:02:51.955Z,17.45
2023-05-03T04:05:54.933Z,17.43
2023-05-03T04:08:57.024Z,17.44
2023-05-03T04:11:59.683Z,17.44
2023-05-03T04:15:01.277Z,17.44
2023-05-03T04:18:04.069Z,17.44
2023-05-03T04:21:05.905Z,17.43
2023-05-03T04:24:07.869Z,17.42
2023-05-03T04:27:09.831Z,17.42
2023-05-03T04:30:15.543Z,17.41
2023-05-03T04:33:21.535Z,17.40
2023-05-03T04:36:25.859Z,17.39
2023-05-03T04:39:29.019Z,17.38
2023-05-03T04:42:30.847Z,17.38
2023-05-03T04:45:32.959Z,17.37
2023-05-03T04:48:36.237Z,17.37
2023-05-03T04:51:37.752Z,17.35
2023-05-03T04:54:39.971Z,17.34
2023-05-03T04:57:42.515Z,17.34
2023-05-03T05:00:46.428Z,17.34
2023-05-03T05:03:54.532Z,17.35
2023-05-03T05:07:00.967Z,17.35
2023-05-03T05:10:06.478Z,17.38
2023-05-03T05:13:08.188Z,17.39
2023-05-03T05:16:10.150Z,17.39
2023-05-03T05:19:14.911Z,17.42
2023-05-03T05:22:16.578Z,17.43
2023-05-03T05:25:23.398Z,17.44
2023-05-03T05:28:24.902Z,17.45
2023-05-03T05:31:26.454Z,17.45
2023-05-03T05:34:30.919Z,17.44
2023-05-03T05:37:35.697Z,17.46
2023-05-03T05:40:39.264Z,17.47
2023-05-03T05:43:40.820Z,17.48
2023-05-03T05:46:42.772Z,17.48
2023-05-03T05:49:44.496Z,17.49
2023-05-03T05:52:47.964Z,17.49
2023-05-03T05:55:49.564Z,17.48
2023-05-03T05:58:52.398Z,17.49
2023-05-03T06:01:54.664Z,17.48
2023-05-03T06:04:56.320Z,17.48
2023-05-03T06:07:57.914Z,17.46
2023-05-03T06:10:59.506Z,17.46
2023-05-03T06:14:03.919Z,17.44
2023-05-03T06:17:06.295Z,17.44
2023-05-03T06:20:11.853Z,17.43
2023-05-03T06:23:15.156Z,17.42
2023-05-03T06:26:17.487Z,17.37
2023-05-03T06:29:19.930Z,17.15
2023-05-03T06:32:21.810Z,16.91
2023-05-03T06:35:23.713Z,16.60
2023-05-03T06:38:25.332Z,16.33
2023-05-03T06:41:26.766Z,16.15
2023-05-03T06:44:28.324Z,16.05
2023-05-03T06:47:29.791Z,15.99
2023-05-03T06:50:31.960Z,15.94
2023-05-03T06:53:33.421Z,15.90
2023-05-03T06:56:36.111Z,15.92
2023-05-03T06:59:37.591Z,15.95
2023-05-03T07:02:39.132Z,15.96
2023-05-03T07:05:40.670Z,15.98
2023-05-03T07:08:42.514Z,15.96
2023-05-03T07:11:49.368Z,15.99
2023-05-03T07:14:50.826Z,16.03
2023-05-03T07:17:52.336Z,15.98
2023-05-03T07:20:53.912Z,15.80
2023-05-03T07:23:55.454Z,15.60
2023-05-03T07:26:58.003Z,15.45
2023-05-03T07:30:00.284Z,15.39
2023-05-03T07:33:01.985Z,15.36
2023-05-03T07:36:05.178Z,15.38
2023-05-03T07:39:07.384Z,15.47
2023-05-03T07:42:08.908Z,15.57
2023-05-03T07:45:10.657Z,15.69
2023-05-03T07:48:12.232Z,15.78
2023-05-03T07:51:13.767Z,15.88
2023-05-03T07:54:15.598Z,15.96
2023-05-03T07:57:17.366Z,16.02
2023-05-03T08:00:19.068Z,16.09
2023-05-03T08:03:21.443Z,16.13
2023-05-03T08:06:23.275Z,16.18
2023-05-03T08:09:24.997Z,16.22
2023-05-03T08:12:26.836Z,16.28
2023-05-03T08:15:28.416Z,16.30
2023-05-03T08:18:29.939Z,16.34
2023-05-03T08:21:33.213Z,16.38
2023-05-03T08:24:35.059Z,16.40
2023-05-03T08:27:37.444Z,16.42
2023-05-03T08:30:39.026Z,16.43
2023-05-03T08:33:40.538Z,16.45
2023-05-03T08:36:42.023Z,16.46
2023-05-03T08:39:43.532Z,16.48
2023-05-03T08:42:46.121Z,16.51
2023-05-03T08:45:47.789Z,16.51
2023-05-03T08:48:52.504Z,16.52
2023-05-03T08:51:55.585Z,16.55
2023-05-03T08:54:57.289Z,16.57
2023-05-03T08:58:00.490Z,16.58
2023-05-03T09:01:09.757Z,16.60
2023-05-03T09:04:11.916Z,16.59
2023-05-03T09:07:15.852Z,16.60
2023-05-03T09:10:24.485Z,16.62
2023-05-03T09:13:32.296Z,16.63
2023-05-03T09:16:33.922Z,16.62
2023-05-03T09:19:50.499Z,16.64
2023-05-03T09:22:52.590Z,16.63
2023-05-03T09:25:54.576Z,16.63
2023-05-03T09:28:58.063Z,16.65
2023-05-03T09:32:01.387Z,16.66
2023-05-03T09:35:10.103Z,16.65
2023-05-03T09:38:27.035Z,16.66
2023-05-03T09:41:29.384Z,16.65
2023-05-03T09:44:41.850Z,16.66
2023-05-03T09:47:52.308Z,16.66
2023-05-03T09:50:54.057Z,16.66
2023-05-03T09:53:56.624Z,16.66
2023-05-03T09:56:59.099Z,16.66
2023-05-03T10:00:00.722Z,16.67
2023-05-03T10:03:07.055Z,16.68
2023-05-03T10:06:16.332Z,16.70
2023-05-03T10:09:20.529Z,16.67
2023-05-03T10:12:22.522Z,16.67
2023-05-03T10:15:27.000Z,16.69
2023-05-03T10:18:32.229Z,16.70
2023-05-03T10:21:46.973Z,16.70
2023-05-03T10:25:01.414Z,16.70
2023-05-03T10:28:07.283Z,16.68
2023-05-03T10:31:45.375Z,16.71
2023-05-03T10:34:47.022Z,16.69
2023-05-03T10:37:50.472Z,16.70
2023-05-03T10:40:53.166Z,16.70
2023-05-03T10:43:54.694Z,16.70
2023-05-03T10:46:57.218Z,16.69
2023-05-03T10:50:17.228Z,16.73
2023-05-03T10:53:31.116Z,16.71
2023-05-03T10:56:32.611Z,16.71
2023-05-03T10:59:47.564Z,16.72
2023-05-03T11:03:09.899Z,16.73
2023-05-03T11:06:27.742Z,16.72
2023-05-03T11:09:33.809Z,16.73
2023-05-03T11:12:35.305Z,16.71
2023-05-03T11:15:37.000Z,16.71
2023-05-03T11:18:38.987Z,16.73
2023-05-03T11:21:40.492Z,16.71
2023-05-03T11:24:41.953Z,16.71
2023-05-03T11:27:44.453Z,16.73
2023-05-03T11:30:46.950Z,16.73
2023-05-03T11:33:49.788Z,16.72
2023-05-03T11:36:51.329Z,16.73
2023-05-03T11:39:52.772Z,16.73
2023-05-03T11:42:56.196Z,16.74
2023-05-03T11:45:59.271Z,16.74
2023-05-03T11:49:02.149Z,16.75
2023-05-03T11:52:03.964Z,16.75
2023-05-03T11:55:07.900Z,16.76
2023-05-03T11:58:32.046Z,16.76
2023-05-03T12:01:33.554Z,16.76
2023-05-03T12:04:37.101Z,16.76
2023-05-03T12:07:39.432Z,16.74
2023-05-03T12:10:42.918Z,16.74
2023-05-03T12:13:44.857Z,16.75
2023-05-03T12:16:51.827Z,16.76
2023-05-03T12:20:50.510Z,16.77
2023-05-03T12:23:35.792Z,16.76
2023-05-03T12:26:38.075Z,16.77
2023-05-03T12:29:41.679Z,16.78
2023-05-03T12:32:44.496Z,16.80
2023-05-03T12:35:48.117Z,16.81
2023-05-03T12:38:55.840Z,16.82
2023-05-03T12:45:04.949Z,16.83
2023-05-03T12:48:06.825Z,16.81
2023-05-03T12:51:19.467Z,16.82
2023-05-03T12:54:26.747Z,16.81
2023-05-03T12:57:30.669Z,16.82
2023-05-03T13:00:36.372Z,16.83
2023-05-03T13:03:43.673Z,16.84
2023-05-03T13:06:46.754Z,16.86
2023-05-03T13:12:54.058Z,16.88
2023-05-03T13:15:55.725Z,16.88
2023-05-03T13:18:57.236Z,16.89
2023-05-03T13:21:58.695Z,16.90
2023-05-03T13:25:00.188Z,16.91
2023-05-03T13:28:01.996Z,16.92
2023-05-03T13:31:03.558Z,16.93
2023-05-03T13:34:06.115Z,16.94
2023-05-03T13:37:07.679Z,16.95
2023-05-03T13:40:10.045Z,16.97
2023-05-03T13:43:11.544Z,16.97
2023-05-03T13:46:13.106Z,16.97
2023-05-03T13:49:14.688Z,16.98
2023-05-03T13:52:16.260Z,17.00
2023-05-03T13:55:17.880Z,17.01
2023-05-03T13:58:19.446Z,17.03
2023-05-03T14:01:21.018Z,17.02
2023-05-03T14:04:24.397Z,17.03
2023-05-03T14:07:25.921Z,17.04
2023-05-03T14:10:27.478Z,17.05
2023-05-03T14:13:32.982Z,17.06
2023-05-03T14:16:41.449Z,17.06
2023-05-03T14:19:43.670Z,17.06
2023-05-03T14:22:45.751Z,17.09
2023-05-03T14:25:47.257Z,17.12
2023-05-03T14:28:48.807Z,17.13
2023-05-03T14:31:50.571Z,17.13
2023-05-03T14:34:52.185Z,17.14
2023-05-03T14:37:53.842Z,17.15
2023-05-03T14:40:55.430Z,17.18
2023-05-03T14:43:56.979Z,17.20
2023-05-03T14:46:59.044Z,17.23
2023-05-03T14:50:01.368Z,17.26
2023-05-03T14:53:03.451Z,17.28
2023-05-03T14:56:05.012Z,17.32
2023-05-03T14:59:06.959Z,17.36
2023-05-03T15:02:10.136Z,17.39
2023-05-03T15:05:12.860Z,17.42
2023-05-03T15:08:16.016Z,17.47
2023-05-03T15:11:17.707Z,17.49
2023-05-03T15:14:19.325Z,17.52
2023-05-03T15:17:20.992Z,17.54
2023-05-03T15:20:22.844Z,17.60
2023-05-03T15:23:24.624Z,17.66
2023-05-03T15:26:26.425Z,17.69
2023-05-03T15:29:28.331Z,17.72
2023-05-03T15:32:30.062Z,17.76
2023-05-03T15:35:31.549Z,17.78
2023-05-03T15:38:32.997Z,17.80
2023-05-03T15:41:34.472Z,17.80
2023-05-03T15:44:37.134Z,17.82
2023-05-03T15:47:38.732Z,17.82
2023-05-03T15:50:40.388Z,17.85
2023-05-03T15:53:41.948Z,17.85
2023-05-03T15:56:47.166Z,17.87
2023-05-03T15:59:49.381Z,17.87
2023-05-03T16:02:51.022Z,17.87
2023-05-03T16:05:53.307Z,17.89
2023-05-03T16:08:54.794Z,17.89
2023-05-03T16:11:57.669Z,17.92
2023-05-03T16:14:59.188Z,17.92
2023-05-03T16:18:01.319Z,17.93
2023-05-03T16:21:02.981Z,17.93
2023-05-03T16:24:04.864Z,17.94
2023-05-03T16:27:06.400Z,17.95
2023-05-03T16:30:09.078Z,17.96
2023-05-03T16:33:10.702Z,17.96
2023-05-03T16:36:12.176Z,17.96
2023-05-03T16:39:14.578Z,17.97
2023-05-03T16:42:16.238Z,17.98
2023-05-03T16:45:19.552Z,17.97
2023-05-03T16:48:21.982Z,17.97
2023-05-03T16:51:23.554Z,17.95
2023-05-03T16:54:25.150Z,17.96
2023-05-03T16:57:26.874Z,17.97
2023-05-03T17:00:28.832Z,17.99
2023-05-03T17:03:30.726Z,17.99
2023-05-03T17:06:32.562Z,18.00
2023-05-03T17:09:34.161Z,18.00
2023-05-03T17:12:35.851Z,18.01
2023-05-03T17:15:37.454Z,18.01
2023-05-03T17:18:40.420Z,18.02
2023-05-03T17:21:42.008Z,18.00
2023-05-03T17:24:43.604Z,18.00
2023-05-03T17:27:45.228Z,18.00
2023-05-03T17:30:46.715Z,17.99
2023-05-03T17:33:48.245Z,18.00
2023-05-03T17:36:49.975Z,18.01
2023-05-03T17:39:51.604Z,18.01
2023-05-03T17:42:53.174Z,18.00
2023-05-03T17:45:54.698Z,18.01
2023-05-03T17:48:57.703Z,17.99
2023-05-03T17:51:59.597Z,17.98
2023-05-03T17:55:02.501Z,17.97
2023-05-03T17:58:05.998Z,17.98
2023-05-03T18:01:10.406Z,18.00
2023-05-03T18:04:12.043Z,18.03
2023-05-03T18:07:14.755Z,18.06
2023-05-03T18:10:17.478Z,18.06
2023-05-03T18:13:19.188Z,18.07
2023-05-03T18:16:20.756Z,18.09
2023-05-03T18:19:22.479Z,18.12
2023-05-03T18:22:27.368Z,18.14
2023-05-03T18:25:29.317Z,18.13
2023-05-03T18:28:30.842Z,18.13
2023-05-03T18:31:32.389Z,18.12
2023-05-03T18:34:37.253Z,18.10
2023-05-03T18:37:38.690Z,18.10
2023-05-03T18:40:40.309Z,18.10
2023-05-03T18:43:43.310Z,18.09
2023-05-03T18:46:44.807Z,18.09
2023-05-03T18:49:48.440Z,18.09
2023-05-03T18:52:50.764Z,18.08
2023-05-03T18:55:52.372Z,18.07
2023-05-03T18:58:53.822Z,18.07
2023-05-03T19:01:55.353Z,18.07
2023-05-03T19:04:56.951Z,18.05
2023-05-03T19:07:58.417Z,18.05
2023-05-03T19:11:14.269Z,18.06
2023-05-03T19:14:16.201Z,18.04
2023-05-03T19:17:17.725Z,18.03
2023-05-03T19:20:19.308Z,18.02
2023-05-03T19:23:20.842Z,18.02
2023-05-03T19:26:22.293Z,18.01
2023-05-03T19:29:23.862Z,18.01
2023-05-03T19:32:25.395Z,18.01
2023-05-03T19:35:26.865Z,18.00
2023-05-03T19:38:28.309Z,18.00
2023-05-03T19:41:30.080Z,18.00
2023-05-03T19:44:31.864Z,17.98
2023-05-03T19:47:33.587Z,17.98
2023-05-03T19:50:35.876Z,17.97
2023-05-03T19:53:37.729Z,17.95
2023-05-03T19:56:39.181Z,17.95
2023-05-03T19:59:40.629Z,17.94
2023-05-03T20:02:42.159Z,17.93
2023-05-03T20:05:43.928Z,17.93
2023-05-03T20:08:45.448Z,17.92
2023-05-03T20:11:48.492Z,17.91
2023-05-03T20:14:49.953Z,17.91
2023-05-03T20:17:53.344Z,17.91
2023-05-03T20:20:54.817Z,17.88
2023-05-03T20:23:56.718Z,17.87
2023-05-03T20:26:58.210Z,17.85
2023-05-03T20:29:59.651Z,17.86
2023-05-03T20:33:01.256Z,17.85
2023-05-03T20:36:02.905Z,17.86
2023-05-03T20:39:05.039Z,17.84
2023-05-03T20:42:06.506Z,17.83
2023-05-03T20:45:08.422Z,17.83
2023-05-03T20:48:09.967Z,17.81
2023-05-03T20:51:11.510Z,17.81
2023-05-03T20:54:13.233Z,17.81
2023-05-03T20:57:17.843Z,17.81
2023-05-03T21:00:20.935Z,17.79
2023-05-03T21:03:28.080Z,17.79
2023-05-03T21:06:29.647Z,17.77
2023-05-03T21:09:31.461Z,17.78
2023-05-03T21:12:33.525Z,17.76
2023-05-03T21:15:37.166Z,17.77
2023-05-03T21:18:38.657Z,17.74
2023-05-03T21:21:41.212Z,17.74
2023-05-03T21:24:42.816Z,17.73
2023-05-03T21:27:44.252Z,17.71
2023-05-03T21:30:48.282Z,17.72
2023-05-03T21:33:49.767Z,17.70
2023-05-03T21:36:51.303Z,17.70
2023-05-03T21:40:01.033Z,17.68
2023-05-03T21:43:04.614Z,17.68
2023-05-03T21:46:09.701Z,17.66
2023-05-03T21:49:11.856Z,17.66
2023-05-03T21:52:13.706Z,17.66
2023-05-03T21:55:15.227Z,17.64
2023-05-03T21:58:16.689Z,17.63
2023-05-03T22:01:19.975Z,17.64
2023-05-03T22:04:21.661Z,17.62
2023-05-03T22:07:23.165Z,17.62
2023-05-03T22:10:24.819Z,17.63
2023-05-03T22:13:26.302Z,17.62
2023-05-03T22:16:27.857Z,17.62
2023-05-03T22:19:29.655Z,17.62
2023-05-03T22:22:31.388Z,17.62
2023-05-03T22:25:32.901Z,17.62
2023-05-03T22:28:34.394Z,17.60
2023-05-03T22:31:36.204Z,17.61
2023-05-03T22:34:37.692Z,17.62
2023-05-03T22:37:39.153Z,17.60
2023-05-03T22:40:40.911Z,17.59
2023-05-03T22:43:42.461Z,17.58
2023-05-03T22:46:43.980Z,17.57
2023-05-03T22:49:45.413Z,17.56
2023-05-03T22:52:47.099Z,17.55
2023-05-03T22:55:58.595Z,17.57
2023-05-03T22:59:00.027Z,17.52
2023-05-03T23:02:01.556Z,17.51
2023-05-03T23:05:03.120Z,17.50
2023-05-03T23:08:04.647Z,17.49
2023-05-03T23:11:06.137Z,17.49
2023-05-03T23:14:07.614Z,17.47
2023-05-03T23:17:12.907Z,17.49
2023-05-03T23:20:14.868Z,17.46
2023-05-03T23:23:16.535Z,17.45
2023-05-03T23:26:18.026Z,17.45
2023-05-03T23:29:19.903Z,17.46
2023-05-03T23:32:22.055Z,17.45
2023-05-03T23:35:24.233Z,17.46
2023-05-03T23:38:25.772Z,17.47
2023-05-03T23:41:27.435Z,17.46
2023-05-03T23:44:38.693Z,17.47
2023-05-03T23:47:48.217Z,17.46
2023-05-03T23:50:49.728Z,17.46
2023-05-03T23:53:51.402Z,17.47
2023-05-03T23:56:52.983Z,17.46
2023-05-03T23:59:54.547Z,17.47
